Ebarb, LA (71462)

7:13 AM CDT on July 29, 2016 (GMT -0500)
Near Parish Line | | Change Station

Elev 245 ft 31.67 °N, 93.33 °W | Updated 48 seconds ago

Clear
Clear
70.4 °F
Feels Like 70.4 °F
N
0.0
Wind Variable Wind from SW
Gusts 14.5 mph

Today
High -- | Low -- °F
--% Chance of Precip.
Yesterday
High -- | Low -- °F
Precip. -- in
Pressure 30.00 in
Visibility 9.0 miles
Clouds Clear
Dew Point 70 °F
Humidity 99%
Rainfall 0.70 in
Snow Depth Not available.
6:29 AM 8:12 PM
Waning Crescent, 22% visible
METAR KAQV 291156Z AUTO 00000KT 9SM CLR 22/21 A3000 RMK AO2 RAB13E24 SLP158 P0001 60001 70076 T02220211 10222 20211 53001
Pressure 30.00 in
Visibility 9.0 miles
Clouds Clear
Dew Point 70 °F
Humidity 99%
Rainfall 0.70 in
Snow Depth Not available.
6:29 AM 8:12 PM
Waning Crescent, 22% visible
METAR KAQV 291156Z AUTO 00000KT 9SM CLR 22/21 A3000 RMK AO2 RAB13E24 SLP158 P0001 60001 70076 T02220211 10222 20211 53001

10-Day Weather Forecast

Almanac

Astronomy

Jul. 29, 2016 Rise Set
Actual Time
Civil Twilight
Nautical Twilight
Astronomical Twilight
Moon
Length of Visible Light
Length of Day
Tomorrow will be .
, % of the Moon is Illuminated

Today's Extremes

State Highs State Lows

Community

WunderPhotos

Upload Photos

1,928,330 photos uploaded!

WunderBlog® & News

Nearby

Air Quality

  Air Quality AQ Index Pollutant
Not available.

Snow Depth

Station Depth Elevation

Earthquake Activity

City Distance Mag. Time & Date
Minimum magnitude displayed is 2.5.

Coastal Water Temperatures

Place Temperature

Stations

Nearby Weather Stations

Station Location Temp. Windchill Dew Point Humidity Wind Precip. Elev Updated Type
                   

Watches & Warnings

There are currently no watches in effect.